createdAt,value
2019-03-30T00:00:49.227Z,99601.26
2019-03-30T00:02:53.530Z,99601.08
2019-03-30T00:04:57.839Z,99606.16
2019-03-30T00:07:02.169Z,99600.73
2019-03-30T00:09:09.378Z,99600.61
2019-03-30T00:11:14.702Z,99598.51
2019-03-30T00:13:18.993Z,99595.63
2019-03-30T00:15:24.304Z,99597.59
2019-03-30T00:17:28.642Z,99590.06
2019-03-30T00:19:35.123Z,99590.45
2019-03-30T00:21:39.037Z,99590.91
2019-03-30T00:23:43.345Z,99584.14
2019-03-30T00:25:47.687Z,99586.00
2019-03-30T00:27:51.989Z,99587.27
2019-03-30T00:29:58.235Z,99583.31
2019-03-30T00:32:02.555Z,99588.73
2019-03-30T00:34:06.946Z,99584.38
2019-03-30T00:36:11.282Z,99581.49
2019-03-30T00:38:16.624Z,99585.64
2019-03-30T00:40:20.929Z,99582.87
2019-03-30T00:42:25.252Z,99586.64
2019-03-30T00:44:29.562Z,99586.19
2019-03-30T00:46:33.958Z,99580.98
2019-03-30T00:48:38.301Z,99581.04
2019-03-30T00:50:42.615Z,99582.54
2019-03-30T00:52:47.164Z,99583.35
2019-03-30T00:54:51.549Z,99580.52
2019-03-30T00:56:55.867Z,99583.16
2019-03-30T00:59:00.169Z,99586.28
2019-03-30T01:01:04.664Z,99583.63
2019-03-30T01:03:09.026Z,99590.48
2019-03-30T01:05:13.476Z,99588.73
2019-03-30T01:07:17.908Z,99578.94
2019-03-30T01:09:22.231Z,99581.39
2019-03-30T01:11:26.568Z,99580.27
2019-03-30T01:13:30.898Z,99576.42
2019-03-30T01:15:36.311Z,99571.98
2019-03-30T01:17:40.673Z,99571.98
2019-03-30T01:19:44.970Z,99572.63
2019-03-30T01:21:49.790Z,99575.33
2019-03-30T01:23:54.011Z,99571.48
2019-03-30T01:25:58.320Z,99578.62
2019-03-30T01:28:03.666Z,99572.12
2019-03-30T01:30:22.470Z,99569.92
2019-03-30T01:32:17.079Z,99571.41
2019-03-30T01:34:21.579Z,99572.96
2019-03-30T01:36:26.861Z,99572.63
2019-03-30T01:38:31.275Z,99572.33
2019-03-30T01:40:35.663Z,99573.13
2019-03-30T01:42:40.927Z,99570.97
2019-03-30T01:44:46.270Z,99573.01
2019-03-30T01:46:50.576Z,99570.38
2019-03-30T01:48:54.907Z,99562.66
2019-03-30T01:51:00.237Z,99565.44
2019-03-30T01:53:04.578Z,99574.95
2019-03-30T01:55:09.228Z,99574.89
2019-03-30T01:57:14.504Z,99577.41
2019-03-30T01:59:18.836Z,99574.11
2019-03-30T02:01:24.166Z,99573.27
2019-03-30T02:03:28.482Z,99578.03
2019-03-30T02:05:32.790Z,99577.40
2019-03-30T02:07:38.124Z,99572.75
2019-03-30T02:09:42.450Z,99569.41
2019-03-30T02:11:46.840Z,99573.13
2019-03-30T02:13:51.175Z,99572.86
2019-03-30T02:15:56.483Z,99573.44
2019-03-30T02:18:00.721Z,99568.10
2019-03-30T02:20:05.361Z,99570.67
2019-03-30T02:22:09.663Z,99576.62
2019-03-30T02:24:13.986Z,99568.08
2019-03-30T02:26:18.375Z,99573.98
2019-03-30T02:28:22.710Z,99576.19
2019-03-30T02:30:27.107Z,99570.95
2019-03-30T02:32:31.446Z,99576.69
2019-03-30T02:34:35.769Z,99579.32
2019-03-30T02:36:40.087Z,99578.72
2019-03-30T02:38:44.398Z,99575.73
2019-03-30T02:40:48.712Z,99575.67
2019-03-30T02:42:54.962Z,99570.16
2019-03-30T02:44:59.294Z,99573.63
2019-03-30T02:47:04.528Z,99573.63
2019-03-30T02:49:08.839Z,99573.80
2019-03-30T02:51:13.230Z,99578.92
2019-03-30T02:53:17.580Z,99571.05
2019-03-30T02:55:21.894Z,99573.61
2019-03-30T02:57:27.214Z,99569.77
2019-03-30T02:59:31.461Z,99565.91
2019-03-30T03:01:35.884Z,99568.27
2019-03-30T03:03:40.129Z,99563.89
2019-03-30T03:05:44.552Z,99565.44
2019-03-30T03:07:48.843Z,99562.94
2019-03-30T03:09:53.091Z,99563.61
2019-03-30T03:11:57.369Z,99565.72
2019-03-30T03:14:01.578Z,99563.25
2019-03-30T03:16:05.984Z,99564.25
2019-03-30T03:18:10.221Z,99563.30
2019-03-30T03:20:14.896Z,99557.37
2019-03-30T03:22:19.124Z,99563.11
2019-03-30T03:24:23.366Z,99560.20
2019-03-30T03:26:27.693Z,99563.95
2019-03-30T03:28:31.927Z,99562.96
2019-03-30T03:30:36.253Z,99560.46
2019-03-30T03:32:40.512Z,99561.33
2019-03-30T03:34:44.767Z,99563.88
2019-03-30T03:36:49.008Z,99557.36
2019-03-30T03:38:53.247Z,99549.19
2019-03-30T03:40:57.864Z,99550.75
2019-03-30T03:43:02.189Z,99548.07
2019-03-30T03:45:07.314Z,99543.88
2019-03-30T03:47:11.564Z,99548.17
2019-03-30T03:49:15.799Z,99556.64
2019-03-30T03:51:26.240Z,99545.26
2019-03-30T03:53:27.694Z,99549.80
2019-03-30T03:55:32.401Z,99553.34
2019-03-30T03:57:40.866Z,99548.95
2019-03-30T03:59:47.197Z,99551.00
2019-03-30T04:01:54.816Z,99543.63
2019-03-30T04:04:02.337Z,99549.36
2019-03-30T04:06:07.150Z,99545.13
2019-03-30T04:08:13.281Z,99541.09
2019-03-30T04:10:17.622Z,99543.47
2019-03-30T04:12:23.761Z,99543.63
2019-03-30T04:14:28.154Z,99542.28
2019-03-30T04:16:32.550Z,99542.67
2019-03-30T04:18:36.922Z,99544.69
2019-03-30T04:20:41.187Z,99544.37
2019-03-30T04:22:45.419Z,99541.84
2019-03-30T04:24:49.733Z,99545.23
2019-03-30T04:26:53.977Z,99540.04
2019-03-30T04:28:58.203Z,99540.40
2019-03-30T04:31:02.465Z,99548.67
2019-03-30T04:33:06.708Z,99539.91
2019-03-30T04:35:11.029Z,99548.19
2019-03-30T04:37:15.285Z,99541.49
2019-03-30T04:39:19.520Z,99544.34
2019-03-30T04:41:23.808Z,99545.89
2019-03-30T04:43:28.045Z,99548.59
2019-03-30T04:45:32.370Z,99540.05
2019-03-30T04:47:36.647Z,99548.48
2019-03-30T04:49:40.892Z,99546.84
2019-03-30T04:51:56.946Z,99549.73
2019-03-30T04:53:51.081Z,99541.69
2019-03-30T04:55:55.309Z,99539.69
2019-03-30T04:57:59.549Z,99542.55
2019-03-30T05:00:04.066Z,99542.89
2019-03-30T05:02:08.326Z,99541.39
2019-03-30T05:04:12.561Z,99545.47
2019-03-30T05:06:16.829Z,99539.59
2019-03-30T05:08:21.189Z,99550.05
2019-03-30T05:10:25.493Z,99546.86
2019-03-30T05:12:29.741Z,99547.89
2019-03-30T05:14:33.983Z,99545.05
2019-03-30T05:16:38.231Z,99546.89
2019-03-30T05:18:42.466Z,99541.36
2019-03-30T05:20:46.795Z,99546.58
2019-03-30T05:22:51.482Z,99542.86
2019-03-30T05:24:55.869Z,99535.78
2019-03-30T05:27:00.176Z,99540.47
2019-03-30T05:29:04.449Z,99539.24
2019-03-30T05:31:08.709Z,99540.73
2019-03-30T05:33:12.966Z,99538.16
2019-03-30T05:35:17.358Z,99535.91
2019-03-30T05:37:21.623Z,99543.29
2019-03-30T05:39:25.857Z,99545.25
2019-03-30T05:41:30.106Z,99538.96
2019-03-30T05:43:34.344Z,99545.14
2019-03-30T05:45:38.605Z,99541.70
2019-03-30T05:47:43.890Z,99543.48
2019-03-30T05:49:48.133Z,99552.64
2019-03-30T05:51:52.383Z,99549.52
2019-03-30T05:53:56.624Z,99549.76
2019-03-30T05:56:00.952Z,99552.05
2019-03-30T05:58:05.188Z,99550.45
2019-03-30T06:00:15.372Z,99553.86
2019-03-30T06:02:19.626Z,99548.63
2019-03-30T06:04:23.888Z,99555.77
2019-03-30T06:06:28.131Z,99554.46
2019-03-30T06:08:32.380Z,99555.01
2019-03-30T06:10:38.731Z,99557.41
2019-03-30T06:12:42.698Z,99560.82
2019-03-30T06:14:47.967Z,99561.90
2019-03-30T06:16:52.329Z,99557.58
2019-03-30T06:18:56.571Z,99562.37
2019-03-30T06:21:00.815Z,99565.22
2019-03-30T06:23:05.076Z,99562.20
2019-03-30T06:25:09.499Z,99565.38
2019-03-30T06:27:13.755Z,99558.34
2019-03-30T06:29:17.996Z,99565.48
2019-03-30T06:31:22.248Z,99559.91
2019-03-30T06:33:26.498Z,99555.20
2019-03-30T06:35:30.732Z,99550.92
2019-03-30T06:37:34.999Z,99547.80
2019-03-30T06:39:39.250Z,99531.27
2019-03-30T06:41:43.501Z,99523.56
2019-03-30T06:43:47.768Z,99528.94
2019-03-30T06:45:52.044Z,99515.94
2019-03-30T06:47:56.467Z,99513.02
2019-03-30T06:50:00.832Z,99515.59
2019-03-30T06:52:05.142Z,99509.00
2019-03-30T06:54:09.551Z,99505.27
2019-03-30T06:56:13.811Z,99501.60
2019-03-30T06:58:18.082Z,99499.34
2019-03-30T07:00:32.103Z,99498.53
2019-03-30T07:02:37.344Z,99495.62
2019-03-30T07:04:41.666Z,99496.20
2019-03-30T07:06:46.866Z,99497.20
2019-03-30T07:08:53.323Z,99486.84
2019-03-30T07:10:59.029Z,99484.08
2019-03-30T07:13:04.156Z,99479.70
2019-03-30T07:15:08.775Z,99478.51
2019-03-30T07:17:13.691Z,99481.45
2019-03-30T07:19:20.707Z,99483.34
2019-03-30T07:21:24.957Z,99488.42
2019-03-30T07:23:29.215Z,99483.25
2019-03-30T07:25:33.862Z,99477.47
2019-03-30T07:27:38.118Z,99465.55
2019-03-30T07:29:42.351Z,99472.55
2019-03-30T07:31:46.610Z,99447.61
2019-03-30T07:33:50.862Z,99468.27
2019-03-30T07:35:55.110Z,99468.27
2019-03-30T07:37:59.468Z,99467.95
2019-03-30T07:40:04.148Z,99456.81
2019-03-30T07:42:08.370Z,99458.92
2019-03-30T07:44:12.787Z,99457.63
2019-03-30T07:46:19.644Z,99462.30
2019-03-30T07:48:24.147Z,99453.41
2019-03-30T07:50:28.400Z,99444.41
2019-03-30T07:52:32.695Z,99444.66
2019-03-30T07:54:37.051Z,99447.45
2019-03-30T07:56:41.478Z,99446.17
2019-03-30T07:58:45.739Z,99446.67
2019-03-30T08:00:50.057Z,99451.09
2019-03-30T08:02:54.322Z,99448.58
2019-03-30T08:04:58.671Z,99457.64
2019-03-30T08:07:03.002Z,99457.52
2019-03-30T08:09:07.783Z,99449.66
2019-03-30T08:11:14.380Z,99452.10
2019-03-30T08:13:18.162Z,99452.64
2019-03-30T08:15:22.497Z,99456.27
2019-03-30T08:17:26.740Z,99449.72
2019-03-30T08:19:31.015Z,99448.32
2019-03-30T08:21:35.268Z,99460.13
2019-03-30T08:23:40.813Z,99455.69
2019-03-30T08:25:45.198Z,99453.96
2019-03-30T08:27:49.468Z,99448.64
2019-03-30T08:29:53.715Z,99460.94
2019-03-30T08:31:58.137Z,99449.33
2019-03-30T08:34:02.399Z,99445.00
2019-03-30T08:36:06.732Z,99444.06
2019-03-30T08:38:11.097Z,99446.98
2019-03-30T08:40:15.626Z,99441.38
2019-03-30T08:42:20.433Z,99439.14
2019-03-30T08:44:24.707Z,99425.12
2019-03-30T08:46:28.962Z,99427.22
2019-03-30T08:48:33.233Z,99430.96
2019-03-30T08:50:37.546Z,99435.64
2019-03-30T08:52:41.803Z,99436.81
2019-03-30T08:54:46.145Z,99431.42
2019-03-30T08:56:50.420Z,99429.36
2019-03-30T08:58:54.674Z,99427.13
2019-03-30T09:00:58.944Z,99426.61
2019-03-30T09:03:03.197Z,99435.95
2019-03-30T09:05:08.731Z,99429.33
2019-03-30T09:07:12.991Z,99425.22
2019-03-30T09:09:17.334Z,99428.55
2019-03-30T09:11:21.586Z,99422.58
2019-03-30T09:13:25.874Z,99421.92
2019-03-30T09:15:30.128Z,99422.83
2019-03-30T09:17:37.167Z,99424.82
2019-03-30T09:19:40.391Z,99425.22
2019-03-30T09:21:44.731Z,99426.95
2019-03-30T09:23:49.002Z,99423.44
2019-03-30T09:25:53.259Z,99413.94
2019-03-30T09:27:57.525Z,99426.33
2019-03-30T09:30:01.931Z,99415.62
2019-03-30T09:32:14.167Z,99411.01
2019-03-30T09:34:12.213Z,99407.50
2019-03-30T09:36:16.470Z,99413.76
2019-03-30T09:38:20.728Z,99413.50
2019-03-30T09:40:25.016Z,99406.98
2019-03-30T09:42:29.263Z,99403.99
2019-03-30T09:44:33.529Z,99407.41
2019-03-30T09:46:37.767Z,99403.08
2019-03-30T09:48:42.021Z,99404.31
2019-03-30T09:50:46.323Z,99400.53
2019-03-30T09:52:50.574Z,99393.78
2019-03-30T09:54:54.834Z,99398.64
2019-03-30T09:56:59.074Z,99389.33
2019-03-30T09:59:03.338Z,99395.33
2019-03-30T10:01:07.587Z,99390.80
2019-03-30T10:03:11.833Z,99389.38
2019-03-30T10:05:16.168Z,99391.70
2019-03-30T10:07:20.500Z,99383.02
2019-03-30T10:09:24.760Z,99384.24
2019-03-30T10:11:29.032Z,99382.98
2019-03-30T10:13:33.276Z,99386.20
2019-03-30T10:15:37.557Z,99381.19
2019-03-30T10:17:41.814Z,99372.95
2019-03-30T10:19:53.033Z,99375.30
2019-03-30T10:21:52.138Z,99378.34
2019-03-30T10:23:56.453Z,99368.70
2019-03-30T10:26:00.727Z,99372.33
2019-03-30T10:28:04.976Z,99367.64
2019-03-30T10:30:10.008Z,99370.23
2019-03-30T10:32:14.263Z,99360.42
2019-03-30T10:34:18.522Z,99361.69
2019-03-30T10:36:22.783Z,99356.77
2019-03-30T10:38:27.034Z,99359.05
2019-03-30T10:40:31.386Z,99353.52
2019-03-30T10:42:35.659Z,99356.59
2019-03-30T10:44:39.933Z,99349.42
2019-03-30T10:46:44.183Z,99346.64
2019-03-30T10:48:48.441Z,99348.55
2019-03-30T10:50:52.746Z,99353.30
2019-03-30T10:52:57.001Z,99346.30
2019-03-30T10:55:01.275Z,99347.59
2019-03-30T10:57:05.694Z,99344.09
2019-03-30T10:59:09.947Z,99343.48
2019-03-30T11:01:14.286Z,99340.34
2019-03-30T11:03:18.549Z,99337.55
2019-03-30T11:05:22.893Z,99334.18
2019-03-30T11:07:27.142Z,99326.30
2019-03-30T11:09:31.414Z,99327.27
2019-03-30T11:11:35.663Z,99327.48
2019-03-30T11:13:39.907Z,99323.31
2019-03-30T11:15:44.252Z,99312.87
2019-03-30T11:17:48.498Z,99309.53
2019-03-30T11:19:52.758Z,99315.55
2019-03-30T11:21:56.997Z,99316.08
2019-03-30T11:24:01.251Z,99309.56
2019-03-30T11:26:05.693Z,99303.92
2019-03-30T11:28:10.023Z,99304.63
2019-03-30T11:30:14.566Z,99304.03
2019-03-30T11:32:18.827Z,99301.28
2019-03-30T11:34:23.078Z,99305.05
2019-03-30T11:36:27.341Z,99305.09
2019-03-30T11:38:31.587Z,99300.42
2019-03-30T11:40:36.010Z,99299.61
2019-03-30T11:42:40.281Z,99285.79
2019-03-30T11:44:44.542Z,99285.22
2019-03-30T11:46:48.871Z,99288.80
2019-03-30T11:48:53.120Z,99284.98
2019-03-30T11:50:57.393Z,99280.91
2019-03-30T11:53:01.653Z,99278.39
2019-03-30T11:55:20.678Z,99270.54
2019-03-30T11:57:12.367Z,99274.00
2019-03-30T11:59:16.627Z,99262.85
2019-03-30T12:01:21.929Z,99267.90
2019-03-30T12:03:26.236Z,99263.84
2019-03-30T12:05:30.680Z,99258.78
2019-03-30T12:07:34.941Z,99262.23
2019-03-30T12:09:39.182Z,99253.64
2019-03-30T12:11:43.440Z,99252.05
2019-03-30T12:13:47.704Z,99249.60
2019-03-30T12:15:52.067Z,99249.95
2019-03-30T12:17:56.456Z,99243.31
2019-03-30T12:20:00.787Z,99239.50
2019-03-30T12:22:05.105Z,99240.63
2019-03-30T12:24:09.436Z,99232.70
2019-03-30T12:26:13.829Z,99224.03
2019-03-30T12:28:18.146Z,99224.64
2019-03-30T12:30:22.555Z,99221.82
2019-03-30T12:32:26.880Z,99224.03
2019-03-30T12:34:31.204Z,99224.80
2019-03-30T12:36:35.507Z,99210.80
2019-03-30T12:38:39.895Z,99211.44
2019-03-30T12:40:45.191Z,99202.11
2019-03-30T12:42:49.551Z,99199.35
2019-03-30T12:44:53.893Z,99194.88
2019-03-30T12:46:58.227Z,99187.69
2019-03-30T12:49:03.640Z,99183.01
2019-03-30T12:51:08.059Z,99180.73
2019-03-30T12:53:12.409Z,99177.41
2019-03-30T12:55:16.704Z,99173.83
2019-03-30T12:57:21.001Z,99169.27
2019-03-30T12:59:25.308Z,99169.67
2019-03-30T13:01:31.608Z,99162.87
2019-03-30T13:03:35.889Z,99164.02
2019-03-30T13:05:40.149Z,99164.00
2019-03-30T13:07:44.605Z,99160.73
2019-03-30T13:09:48.935Z,99160.13
2019-03-30T13:11:53.282Z,99157.67
2019-03-30T13:13:57.637Z,99149.63
2019-03-30T13:16:01.911Z,99148.35
2019-03-30T13:18:07.243Z,99152.67
2019-03-30T13:20:11.631Z,99149.22
2019-03-30T13:22:15.975Z,99146.67
2019-03-30T13:24:20.278Z,99145.34
2019-03-30T13:26:24.608Z,99143.39
2019-03-30T13:28:28.986Z,99152.58
2019-03-30T13:30:33.344Z,99140.37
2019-03-30T13:32:37.649Z,99134.13
2019-03-30T13:34:41.963Z,99136.22
2019-03-30T13:36:46.282Z,99125.73
2019-03-30T13:38:50.587Z,99124.09
2019-03-30T13:40:54.916Z,99124.30
2019-03-30T13:42:59.295Z,99120.42
2019-03-30T13:45:04.158Z,99123.23
2019-03-30T13:47:08.546Z,99112.74
2019-03-30T13:49:12.962Z,99108.98
2019-03-30T13:51:17.311Z,99109.63
2019-03-30T13:53:21.768Z,99111.23
2019-03-30T13:55:26.033Z,99102.97
2019-03-30T13:57:30.348Z,99103.55
2019-03-30T13:59:34.681Z,99092.83
2019-03-30T14:01:39.000Z,99097.50
2019-03-30T14:03:43.301Z,99097.72
2019-03-30T14:05:47.644Z,99095.30
2019-03-30T14:07:51.935Z,99088.64
2019-03-30T14:09:56.245Z,99093.66
2019-03-30T14:12:00.587Z,99091.42
2019-03-30T14:14:04.947Z,99088.73
2019-03-30T14:16:09.294Z,99089.09
2019-03-30T14:18:13.614Z,99080.47
2019-03-30T14:20:17.920Z,99083.77
2019-03-30T14:22:22.245Z,99075.38
2019-03-30T14:24:26.549Z,99069.75
2019-03-30T14:26:31.882Z,99063.60
2019-03-30T14:28:36.311Z,99062.05
2019-03-30T14:30:40.632Z,99058.31
2019-03-30T14:32:44.946Z,99059.07
2019-03-30T14:34:49.249Z,99054.40
2019-03-30T14:36:53.587Z,99051.46
2019-03-30T14:38:57.879Z,99050.47
2019-03-30T14:41:03.777Z,99043.92
2019-03-30T14:43:08.427Z,99049.34
2019-03-30T14:45:12.943Z,99046.98
2019-03-30T14:47:19.277Z,99040.65
2019-03-30T14:49:23.555Z,99034.72
2019-03-30T14:51:27.878Z,99037.30
2019-03-30T14:53:32.186Z,99031.89
2019-03-30T14:55:39.438Z,99025.48
2019-03-30T14:57:42.663Z,99032.95
2019-03-30T14:59:47.995Z,99025.49
2019-03-30T15:01:52.316Z,99018.78
2019-03-30T15:03:57.800Z,99019.52
2019-03-30T15:06:03.089Z,99015.71
2019-03-30T15:08:07.409Z,99015.27
2019-03-30T15:10:12.397Z,99007.44
2019-03-30T15:12:16.759Z,99003.91
2019-03-30T15:14:21.057Z,99005.11
2019-03-30T15:16:25.377Z,99007.78
2019-03-30T15:18:29.691Z,99006.23
2019-03-30T15:20:34.075Z,99006.00
2019-03-30T15:22:38.434Z,99003.02
2019-03-30T15:24:42.887Z,99001.20
2019-03-30T15:26:59.195Z,99002.80
2019-03-30T15:28:53.316Z,99000.41
2019-03-30T15:30:57.631Z,99007.28
2019-03-30T15:33:03.563Z,99000.38
2019-03-30T15:35:09.487Z,99006.78
2019-03-30T15:37:14.780Z,99003.67
2019-03-30T15:39:19.158Z,98996.05
2019-03-30T15:41:23.604Z,98990.56
2019-03-30T15:43:38.045Z,98988.27
2019-03-30T15:45:33.994Z,98991.19
2019-03-30T15:47:38.383Z,98990.19
2019-03-30T15:49:42.781Z,98986.73
2019-03-30T15:51:47.227Z,98993.83
2019-03-30T15:53:52.567Z,98981.47
2019-03-30T15:55:56.960Z,98982.73
2019-03-30T15:58:01.317Z,98980.47
2019-03-30T16:00:07.556Z,98975.98
2019-03-30T16:02:12.033Z,98976.53
2019-03-30T16:04:16.474Z,98972.92
2019-03-30T16:06:20.815Z,98969.70
2019-03-30T16:08:25.082Z,98969.70
2019-03-30T16:10:29.441Z,98971.55
2019-03-30T16:12:33.790Z,98969.46
2019-03-30T16:14:38.074Z,98969.05
2019-03-30T16:16:42.406Z,98974.56
2019-03-30T16:18:46.697Z,98976.03
2019-03-30T16:20:52.245Z,98974.34
2019-03-30T16:22:56.650Z,98973.56
2019-03-30T16:25:01.048Z,98965.58
2019-03-30T16:27:05.674Z,98971.66
2019-03-30T16:29:10.097Z,98965.41
2019-03-30T16:31:14.442Z,98966.26
2019-03-30T16:33:18.767Z,98966.26
2019-03-30T16:35:23.081Z,98966.98
2019-03-30T16:37:27.404Z,98966.90
2019-03-30T16:39:34.683Z,98965.50
2019-03-30T16:41:37.775Z,98957.34
2019-03-30T16:43:42.101Z,98958.53
2019-03-30T16:45:47.401Z,98949.73
2019-03-30T16:47:51.789Z,98963.91
2019-03-30T16:49:56.133Z,98962.88
2019-03-30T16:52:00.462Z,98963.08
2019-03-30T16:54:06.075Z,98968.17
2019-03-30T16:56:10.415Z,98956.42
2019-03-30T16:58:14.733Z,98957.48
2019-03-30T17:00:19.702Z,98957.48
2019-03-30T17:02:23.984Z,98954.27
2019-03-30T17:04:29.725Z,98957.66
2019-03-30T17:06:35.165Z,98961.95
2019-03-30T17:08:39.508Z,98956.11
2019-03-30T17:10:43.799Z,98957.09
2019-03-30T17:12:48.114Z,98950.12
2019-03-30T17:14:52.431Z,98958.66
2019-03-30T17:16:56.741Z,98959.02
2019-03-30T17:19:01.059Z,98955.80
2019-03-30T17:21:05.444Z,98958.58
2019-03-30T17:23:09.873Z,98956.98
2019-03-30T17:25:14.204Z,98950.84
2019-03-30T17:27:18.512Z,98958.84
2019-03-30T17:29:22.910Z,98959.39
2019-03-30T17:31:27.248Z,98961.13
2019-03-30T17:33:32.599Z,98964.66
2019-03-30T17:35:37.926Z,98965.44
2019-03-30T17:37:42.423Z,98967.61
2019-03-30T17:39:46.759Z,98969.58
2019-03-30T17:41:52.179Z,98963.11
2019-03-30T17:43:57.517Z,98966.31
2019-03-30T17:46:02.293Z,98969.91
2019-03-30T17:48:06.664Z,98973.36
2019-03-30T17:50:11.351Z,98968.04
2019-03-30T17:52:15.719Z,98964.92
2019-03-30T17:54:21.076Z,98971.53
2019-03-30T17:56:26.384Z,98973.50
2019-03-30T17:58:31.754Z,98972.95
2019-03-30T18:00:36.246Z,98974.69
2019-03-30T18:02:40.580Z,98970.14
2019-03-30T18:04:45.001Z,98971.75
2019-03-30T18:06:49.320Z,98966.73
2019-03-30T18:08:53.660Z,98979.19
2019-03-30T18:10:58.961Z,98975.53
2019-03-30T18:13:03.376Z,98973.74
2019-03-30T18:15:10.112Z,98975.20
2019-03-30T18:17:14.531Z,98967.80
2019-03-30T18:19:18.881Z,98974.33
2019-03-30T18:21:24.232Z,98970.52
2019-03-30T18:23:28.541Z,98973.16
2019-03-30T18:25:32.844Z,98977.11
2019-03-30T18:27:37.167Z,98976.32
2019-03-30T18:29:41.671Z,98977.25
2019-03-30T18:31:46.274Z,98970.80
2019-03-30T18:33:51.189Z,98973.88
2019-03-30T18:35:55.799Z,98976.92
2019-03-30T18:38:00.952Z,98974.45
2019-03-30T18:40:06.505Z,98977.04
2019-03-30T18:42:10.927Z,98975.72
2019-03-30T18:44:17.285Z,98987.02
2019-03-30T18:46:21.714Z,98981.27
2019-03-30T18:48:26.048Z,98982.34
2019-03-30T18:50:30.641Z,98986.19
2019-03-30T18:52:35.629Z,98985.42
2019-03-30T18:54:41.997Z,98986.28
2019-03-30T18:56:46.266Z,98993.16
2019-03-30T18:58:50.598Z,98993.16
2019-03-30T19:00:55.912Z,98991.27
2019-03-30T19:03:00.239Z,98996.80
2019-03-30T19:05:04.856Z,98991.62
2019-03-30T19:07:09.189Z,98992.70
2019-03-30T19:09:14.530Z,98998.50
2019-03-30T19:11:18.833Z,98995.77
2019-03-30T19:13:24.184Z,98999.33
2019-03-30T19:15:29.512Z,98999.08
2019-03-30T19:17:34.859Z,98999.34
2019-03-30T19:19:39.169Z,98998.26
2019-03-30T19:21:44.506Z,99007.57
2019-03-30T19:23:48.820Z,99001.80
2019-03-30T19:25:53.143Z,99002.63
2019-03-30T19:27:57.605Z,99005.93
2019-03-30T19:30:01.897Z,99004.54
2019-03-30T19:32:06.177Z,99007.20
2019-03-30T19:34:12.449Z,99004.13
2019-03-30T19:36:16.855Z,98998.30
2019-03-30T19:38:21.178Z,99003.77
2019-03-30T19:40:26.522Z,99006.23
2019-03-30T19:42:31.924Z,99012.78
2019-03-30T19:44:36.283Z,99000.16
2019-03-30T19:46:40.576Z,99008.66
2019-03-30T19:48:44.818Z,99000.41
2019-03-30T19:50:49.129Z,99002.80
2019-03-30T19:52:53.429Z,99000.03
2019-03-30T19:54:57.753Z,99000.55
2019-03-30T19:57:02.063Z,98996.36
2019-03-30T19:59:10.914Z,99004.58
2019-03-30T20:01:12.593Z,99006.13
2019-03-30T20:03:16.851Z,99002.85
2019-03-30T20:05:22.379Z,99006.39
2019-03-30T20:07:26.722Z,99011.77
2019-03-30T20:09:32.046Z,99003.65
2019-03-30T20:11:36.370Z,99017.06
2019-03-30T20:13:40.664Z,99006.48
2019-03-30T20:15:44.991Z,99002.77
2019-03-30T20:17:49.306Z,99003.84
2019-03-30T20:19:53.701Z,99007.05
2019-03-30T20:21:58.028Z,98999.02
2019-03-30T20:24:02.354Z,99007.05
2019-03-30T20:26:06.667Z,99003.09
2019-03-30T20:28:10.980Z,99003.34
2019-03-30T20:30:16.441Z,99004.44
2019-03-30T20:32:20.742Z,99006.35
2019-03-30T20:34:25.071Z,99004.39
2019-03-30T20:36:31.325Z,99014.72
2019-03-30T20:38:35.630Z,99007.80
2019-03-30T20:40:39.955Z,99006.45
2019-03-30T20:42:45.296Z,99003.13
2019-03-30T20:44:49.600Z,99012.31
2019-03-30T20:46:53.922Z,99012.48
2019-03-30T20:48:58.233Z,99006.59
2019-03-30T20:51:02.549Z,99004.95
2019-03-30T20:53:06.959Z,99003.66
2019-03-30T20:55:11.547Z,99005.22
2019-03-30T20:57:16.821Z,99011.97
2019-03-30T20:59:22.156Z,99008.40
2019-03-30T21:01:26.493Z,99017.37
2019-03-30T21:03:30.796Z,99015.80
2019-03-30T21:05:35.110Z,99013.56
2019-03-30T21:07:41.710Z,99012.23
2019-03-30T21:09:46.500Z,99007.86
2019-03-30T21:11:50.761Z,99006.34
2019-03-30T21:13:56.771Z,99006.97
2019-03-30T21:16:01.086Z,99011.30
2019-03-30T21:18:05.467Z,99014.25
2019-03-30T21:20:10.173Z,99003.66
2019-03-30T21:22:15.472Z,99003.84
2019-03-30T21:24:19.772Z,99003.33
2019-03-30T21:26:24.094Z,99007.95
2019-03-30T21:28:28.487Z,99013.97
2019-03-30T21:30:32.827Z,99014.06
2019-03-30T21:32:37.139Z,99017.41
2019-03-30T21:34:41.399Z,99008.16
2019-03-30T21:36:45.651Z,99010.09
2019-03-30T21:38:49.973Z,99012.70
2019-03-30T21:40:54.214Z,99011.59
2019-03-30T21:42:58.619Z,99015.83
2019-03-30T21:45:03.015Z,99014.77
2019-03-30T21:47:07.434Z,99010.47
2019-03-30T21:49:11.761Z,99010.51
2019-03-30T21:51:16.076Z,99016.09
2019-03-30T21:53:20.387Z,99017.05
2019-03-30T21:55:25.726Z,99019.11
2019-03-30T21:57:30.055Z,99013.25
2019-03-30T21:59:35.378Z,99014.57
2019-03-30T22:01:39.707Z,99017.45
2019-03-30T22:03:45.030Z,99016.25
2019-03-30T22:05:49.339Z,99013.38
2019-03-30T22:07:53.737Z,99014.38
2019-03-30T22:09:58.429Z,99021.67
2019-03-30T22:12:02.685Z,99020.94
2019-03-30T22:14:07.021Z,99022.39
2019-03-30T22:16:11.334Z,99023.45
2019-03-30T22:18:16.675Z,99020.14
2019-03-30T22:20:21.430Z,99020.31
2019-03-30T22:22:26.742Z,99017.14
2019-03-30T22:24:33.036Z,99029.88
2019-03-30T22:26:37.369Z,99019.70
2019-03-30T22:28:41.613Z,99023.02
2019-03-30T22:30:46.059Z,99014.98
2019-03-30T22:32:50.363Z,99019.17
2019-03-30T22:34:54.747Z,99020.83
2019-03-30T22:37:00.017Z,99017.93
2019-03-30T22:39:05.521Z,99019.02
2019-03-30T22:41:09.961Z,99021.86
2019-03-30T22:43:15.209Z,99023.91
2019-03-30T22:45:19.522Z,99019.17
2019-03-30T22:47:23.847Z,99026.57
2019-03-30T22:49:28.170Z,99018.65
2019-03-30T22:51:32.559Z,99028.44
2019-03-30T22:53:36.904Z,99023.52
2019-03-30T22:55:42.233Z,99017.48
2019-03-30T22:57:46.554Z,99027.67
2019-03-30T22:59:50.863Z,99026.31
2019-03-30T23:01:56.198Z,99028.50
2019-03-30T23:04:01.542Z,99033.36
2019-03-30T23:06:05.928Z,99031.38
2019-03-30T23:08:10.477Z,99029.37
2019-03-30T23:10:14.794Z,99027.36
2019-03-30T23:12:19.037Z,99027.82
2019-03-30T23:14:23.382Z,99025.63
2019-03-30T23:16:27.728Z,99020.83
2019-03-30T23:18:32.056Z,99021.84
2019-03-30T23:20:38.303Z,99021.41
2019-03-30T23:22:42.635Z,99024.45
2019-03-30T23:24:46.933Z,99017.24
2019-03-30T23:26:51.252Z,99018.75
2019-03-30T23:28:55.578Z,99015.90
2019-03-30T23:31:01.635Z,99013.57
2019-03-30T23:33:05.944Z,99018.66
2019-03-30T23:35:12.275Z,99017.45
2019-03-30T23:37:16.616Z,99010.58
2019-03-30T23:39:21.008Z,99014.77
2019-03-30T23:41:25.343Z,99015.81
2019-03-30T23:43:29.670Z,99013.09
2019-03-30T23:45:34.049Z,99010.72
2019-03-30T23:47:38.477Z,99014.11
2019-03-30T23:49:42.812Z,99009.13
2019-03-30T23:51:47.129Z,99011.77
2019-03-30T23:53:51.443Z,99017.37
2019-03-30T23:55:55.756Z,99017.16
2019-03-30T23:58:00.084Z,99015.14
